Normandy Observed Data For Previous 48 Hours

Caption
Day and Hour Reservoir Elevation (behind dam)* Tailwater Elevation (below dam)* Average Hourly Discharge*
1/19/2019 1 AM CST 865.18 791.30 560
1/19/2019 2 AM CST 865.18 791.31 560
1/19/2019 3 AM CST 865.17 791.30 558
1/19/2019 4 AM CST 865.16 791.32 550
1/19/2019 5 AM CST 865.18 791.33 554
1/19/2019 6 AM CST 865.21 791.34 560
1/19/2019 7 AM CST 865.20 791.35 560
1/19/2019 8 AM CST 865.20 791.40 560
1/19/2019 9 AM CST 865.25 791.42 560
1/19/2019 10 AM CST 865.31 791.46 565
1/19/2019 11 AM CST 865.34 791.51 570
1/19/2019 12 PM CST 865.40 791.59 571
1/19/2019 1 PM CST 865.53 791.69 582
1/19/2019 2 PM CST 865.68 791.89 595
1/19/2019 3 PM CST 865.91 792.08 612
1/19/2019 4 PM CST 866.12 792.22 633
1/19/2019 5 PM CST 866.33 792.24 653
1/19/2019 6 PM CST 866.55 792.21 674
1/19/2019 7 PM CST 866.75 792.18 694
1/19/2019 8 PM CST 866.94 792.16 714
1/19/2019 9 PM CST 867.15 792.15 733
1/19/2019 10 PM CST 867.34 792.17 754
1/19/2019 11 PM CST 867.49 792.18 771
1/20/2019 12 AM CST 867.66 792.21 786
1/20/2019 1 AM CST 867.84 792.22 805
1/20/2019 2 AM CST 868.03 792.23 824
1/20/2019 3 AM CST 868.16 792.27 841
1/20/2019 4 AM CST 868.30 792.28 855
1/20/2019 5 AM CST 868.43 792.31 868
1/20/2019 6 AM CST 868.51 792.32 880
1/20/2019 7 AM CST 868.61 792.32 889
1/20/2019 8 AM CST 868.68 792.33 894
1/20/2019 9 AM CST 868.74 792.34 900
1/20/2019 10 AM CST 868.82 792.36 900
1/20/2019 11 AM CST 868.86 792.35 905
1/20/2019 12 PM CST 868.89 792.37 910
1/20/2019 1 PM CST 868.92 792.37 910
1/20/2019 2 PM CST 868.95 792.37 910
1/20/2019 3 PM CST 868.97 792.37 910
1/20/2019 4 PM CST 869.01 792.38 910
1/20/2019 5 PM CST 869.02 792.38 910
1/20/2019 6 PM CST 869.04 792.37 911
1/20/2019 7 PM CST 869.05 792.37 920
1/20/2019 8 PM CST 869.06 792.38 920
1/20/2019 9 PM CST 869.08 792.37 920
1/20/2019 10 PM CST 869.09 792.38 920
1/20/2019 11 PM CST 869.10 792.38 920
1/21/2019 12 AM CST 869.11 792.38 920
1/21/2019 1 AM CST 869.11 792.39 920
1/21/2019 2 AM CST 869.12 792.38 920
1/21/2019 3 AM CST 869.12 792.38 920

Elevations are in feet above sea level. Discharges are in cubic feet per second and are reported at the end of the hour.